Time;durP1;ratioP1;P1;durP2;ratioP2;P2;SDS_P1;SDS_P2;PMS_P1;PMS_P2;Temp;Humidity;BMP_temperature;BMP_pressure;BME280_temperature;BME280_humidity;BME280_pressure;Samples;Min_cycle;Max_cycle;Signal;HPM_P1;HPM_P2
2021/11/17 02:25:48;;;;;;;45.15;18.32;;;;;;;-2.10;83.97;98424.50;1670412;85;21074;-83
2021/11/17 02:28:54;;;;;;;38.30;19.00;;;;;;;-2.15;84.27;98427.38;1711064;83;21064;-82
2021/11/17 02:31:41;;;;;;;36.38;17.52;;;;;;;-2.21;84.43;98422.89;1724672;83;21438;-83
2021/11/17 02:34:47;;;;;;;40.88;18.60;;;;;;;-2.23;84.50;98424.57;1686800;83;21057;-83
2021/11/17 02:37:44;;;;;;;40.80;18.10;;;;;;;-2.19;84.29;98423.83;1689053;83;22121;-83
2021/11/17 02:40:22;;;;;;;40.15;18.50;;;;;;;-2.18;84.22;98420.80;1673899;85;21022;-83
2021/11/17 02:43:18;;;;;;;38.60;18.07;;;;;;;-2.15;84.17;98424.78;1667476;85;22085;-84
2021/11/17 02:45:58;;;;;;;39.03;18.82;;;;;;;-2.19;84.14;98422.53;1677759;83;20975;-83
2021/11/17 02:48:47;;;;;;;37.95;18.73;;;;;;;-2.14;84.11;98427.44;1696196;84;21082;-83
2021/11/17 02:51:34;;;;;;;42.60;17.57;;;;;;;-2.15;83.97;98424.78;1687045;84;21050;-83
2021/11/17 02:54:11;;;;;;;33.55;17.90;;;;;;;-2.18;83.97;98424.69;1696118;85;21053;-83
2021/11/17 02:57:02;;;;;;;34.15;17.12;;;;;;;-2.15;83.90;98418.30;1692384;85;21011;-83
2021/11/17 02:59:49;;;;;;;41.95;18.65;;;;;;;-2.18;83.93;98421.69;1676285;83;21042;-83
2021/11/17 03:02:47;;;;;;;34.43;17.82;;;;;;;-2.19;83.72;98421.23;1668189;86;21501;-82
2021/11/17 03:05:52;;;;;;;38.10;18.40;;;;;;;-2.18;84.06;98420.80;1667407;86;21009;-83
2021/11/17 03:08:27;;;;;;;34.63;16.75;;;;;;;-2.19;83.74;98424.23;1668185;86;21029;-83
2021/11/17 03:11:02;;;;;;;41.68;18.00;;;;;;;-2.22;83.83;98422.43;1691164;83;20939;-83
2021/11/17 03:13:41;;;;;;;37.50;17.98;;;;;;;-2.21;83.80;98425.92;1694955;85;21042;-83
2021/11/17 03:16:16;;;;;;;38.73;17.85;;;;;;;-2.19;83.76;98423.83;1696019;83;20999;-83
2021/11/17 03:19:09;;;;;;;43.15;18.02;;;;;;;-2.20;83.77;98415.98;1695212;84;20975;-83
2021/11/17 03:22:00;;;;;;;44.03;18.52;;;;;;;-2.19;83.94;98416.03;1694446;85;21021;-83
2021/11/17 03:24:40;;;;;;;38.78;17.67;;;;;;;-2.24;84.04;98417.63;1685123;84;21510;-85
2021/11/17 03:27:24;;;;;;;36.25;16.02;;;;;;;-2.23;83.80;98411.59;1678515;85;21062;-84
2021/11/17 03:30:13;;;;;;;42.90;21.40;;;;;;;-2.20;83.75;98410.36;1653852;86;28433;-84
2021/11/17 03:33:20;;;;;;;39.83;18.15;;;;;;;-2.07;83.54;98412.02;1668145;85;21081;-84
2021/11/17 03:36:13;;;;;;;36.70;17.25;;;;;;;-2.15;83.76;98413.10;1690903;84;21496;-83
2021/11/17 03:38:48;;;;;;;35.80;17.25;;;;;;;-2.14;83.79;98407.06;1690775;84;21055;-83
2021/11/17 03:41:39;;;;;;;35.30;18.02;;;;;;;-2.19;83.92;98405.66;1676634;85;21016;-83
2021/11/17 03:44:23;;;;;;;37.00;17.23;;;;;;;-2.20;83.87;98400.41;1690840;84;21529;-83
2021/11/17 03:47:08;;;;;;;35.65;17.80;;;;;;;-2.24;83.62;98405.94;1680868;83;21062;-83
2021/11/17 03:50:04;;;;;;;39.75;17.25;;;;;;;-2.22;83.74;98412.05;1646000;87;21069;-83
2021/11/17 03:52:36;;;;;;;36.53;16.42;;;;;;;-2.26;83.70;98411.48;1561579;88;21111;-83
2021/11/17 03:55:53;;;;;;;33.92;16.37;;;;;;;-2.33;84.12;98405.67;1600757;88;21069;-83
2021/11/17 03:58:44;;;;;;;44.35;17.62;;;;;;;-2.36;83.82;98415.96;1614442;88;21002;-83
2021/11/17 04:01:24;;;;;;;33.60;15.53;;;;;;;-2.41;83.81;98413.25;1606429;89;21093;-83
2021/11/17 04:04:16;;;;;;;32.98;17.02;;;;;;;-2.52;83.63;98404.70;1677167;85;21133;-83
2021/11/17 04:07:31;;;;;;;36.70;17.15;;;;;;;-2.53;83.94;98408.14;1677822;85;21014;-83
2021/11/17 04:10:07;;;;;;;;;;;;;;;-2.50;83.79;98406.05;1688992;84;20981;-82
2021/11/17 04:12:57;;;;;;;30.90;15.60;;;;;;;-2.48;83.88;98400.91;1704243;84;20106;-83
2021/11/17 04:15:51;;;;;;;39.53;17.27;;;;;;;-2.46;83.78;98393.63;1671204;85;21058;-83
2021/11/17 04:18:35;;;;;;;35.40;15.93;;;;;;;-2.49;83.59;98403.91;1673045;85;21492;-83
2021/11/17 04:21:16;;;;;;;38.58;16.27;;;;;;;-2.47;83.62;98392.28;1684232;85;21457;-83
2021/11/17 04:23:51;;;;;;;35.90;15.35;;;;;;;-2.50;83.46;98391.77;1654143;87;21027;-83
2021/11/17 04:26:32;;;;;;;36.42;16.93;;;;;;;-2.51;83.52;98396.51;1655814;87;21084;-83
2021/11/17 04:29:26;;;;;;;32.35;15.23;;;;;;;-2.47;83.71;98401.36;1656379;87;21050;-83
2021/11/17 04:32:28;;;;;;;31.15;14.85;;;;;;;-2.52;84.02;98396.05;1645019;87;21007;-83
2021/11/17 04:35:12;;;;;;;37.80;17.67;;;;;;;-2.57;83.47;98394.60;1639421;87;21030;-83
2021/11/17 04:38:03;;;;;;;31.30;15.32;;;;;;;-2.59;83.88;98397.98;1658845;85;21039;-83
2021/11/17 04:41:00;;;;;;;33.25;14.78;;;;;;;-2.66;85.20;98397.81;1673319;85;20986;-83
2021/11/17 04:43:53;;;;;;;34.35;16.07;;;;;;;-2.68;84.64;98386.93;1675846;86;21018;-83
2021/11/17 04:46:55;;;;;;;34.05;16.12;;;;;;;-2.73;84.42;98385.51;1673375;86;21039;-83
2021/11/17 04:49:30;;;;;;;37.70;15.63;;;;;;;-2.76;84.38;98385.81;1675348;85;21440;-83
2021/11/17 04:52:23;;;;;;;40.43;16.95;;;;;;;-2.77;85.30;98382.76;1679565;85;21448;-83
2021/11/17 04:55:18;;;;;;;34.40;15.88;;;;;;;-2.73;84.74;98379.43;1670842;85;21058;-83
2021/11/17 04:58:08;;;;;;;36.65;16.73;;;;;;;-2.72;84.31;98381.18;1672763;85;21067;-83
2021/11/17 05:01:04;;;;;;;31.75;16.25;;;;;;;-2.76;83.96;98382.81;1677861;85;21283;-83
2021/11/17 05:03:45;;;;;;;31.95;14.87;;;;;;;-2.79;84.57;98381.00;1659987;85;21070;-83
2021/11/17 05:06:32;;;;;;;37.25;16.00;;;;;;;-2.81;83.95;98383.98;1674455;85;21107;-84
2021/11/17 05:09:36;;;;;;;36.28;15.35;;;;;;;-2.81;84.08;98380.50;1638684;85;21007;-83
2021/11/17 05:12:23;;;;;;;35.90;16.35;;;;;;;-2.81;83.98;98385.28;1658234;85;20998;-83
2021/11/17 05:15:18;;;;;;;41.23;16.48;;;;;;;-2.80;84.27;98383.55;1660293;86;21001;-83
2021/11/17 05:18:05;;;;;;;39.70;16.60;;;;;;;-2.84;85.00;98381.69;1660280;86;21081;-83
2021/11/17 05:21:07;;;;;;;36.98;15.68;;;;;;;-2.87;84.61;98374.70;1659284;86;21014;-83
2021/11/17 05:23:54;;;;;;;32.50;14.87;;;;;;;-2.88;84.54;98375.94;1661717;85;21412;-83
2021/11/17 05:26:44;;;;;;;35.48;16.23;;;;;;;-2.86;84.58;98382.94;1642976;86;21513;-83
2021/11/17 05:29:19;;;;;;;39.58;17.07;;;;;;;-2.88;84.17;98376.84;1672334;85;21035;-83
2021/11/17 05:32:10;;;;;;;33.90;16.48;;;;;;;-2.89;84.09;98382.86;1667004;85;21468;-83
2021/11/17 05:35:08;;;;;;;38.38;17.82;;;;;;;-2.90;84.13;98376.33;1676700;85;21042;-83
2021/11/17 05:37:52;;;;;;;40.33;16.48;;;;;;;-2.87;84.19;98376.43;1659635;86;21034;-83
2021/11/17 05:40:39;;;;;;;41.08;18.40;;;;;;;-2.84;84.10;98375.20;1659940;86;21025;-83
2021/11/17 05:43:44;;;;;;;54.70;20.77;;;;;;;-2.85;84.12;98373.05;1660246;86;21026;-83
2021/11/17 05:46:19;;;;;;;52.33;19.07;;;;;;;-2.80;84.30;98378.36;1666071;85;21514;-83
2021/11/17 05:49:23;;;;;;;40.00;18.57;;;;;;;-2.82;84.04;98378.31;1701984;84;21005;-83
2021/11/17 05:52:13;;;;;;;38.13;17.12;;;;;;;-2.79;84.17;98375.81;1703880;84;21112;-83
2021/11/17 05:55:21;;;;;;;37.70;17.62;;;;;;;-2.79;84.00;98381.00;1680926;85;21038;-83
2021/11/17 05:58:30;;;;;;;48.28;21.27;;;;;;;-2.75;84.68;98381.97;1661335;86;21077;-83
2021/11/17 06:01:29;;;;;;;41.77;18.05;;;;;;;-2.71;84.28;98377.75;1660497;86;21077;-82
2021/11/17 06:04:00;;;;;;;35.60;17.67;;;;;;;-2.75;83.77;98387.16;1692888;84;21017;-82
2021/11/17 06:06:24;;;;;;;37.65;17.40;;;;;;;-2.74;83.99;98392.80;1704442;84;21471;-81
2021/11/17 06:08:50;;;;;;;41.60;18.70;;;;;;;-2.73;84.04;98388.11;1704893;83;21029;-82
2021/11/17 06:11:21;;;;;;;37.30;17.15;;;;;;;-2.72;83.80;98387.27;1704923;83;20998;-81
2021/11/17 06:13:48;;;;;;;38.25;17.05;;;;;;;-2.71;84.28;98382.94;1693202;84;21448;-82
2021/11/17 06:16:15;;;;;;;38.90;17.77;;;;;;;-2.67;84.10;98382.20;1697626;84;21001;-82
2021/11/17 06:18:43;;;;;;;37.00;18.35;;;;;;;-2.61;84.03;98382.41;1682839;84;21050;-81
2021/11/17 06:21:13;;;;;;;46.55;19.05;;;;;;;-2.58;83.93;98384.20;1679874;84;21040;-82
2021/11/17 06:23:57;;;;;;;42.40;19.62;;;;;;;-2.56;83.82;98388.60;1682863;85;21100;-83
2021/11/17 06:26:29;;;;;;;50.70;20.55;;;;;;;-2.53;83.90;98392.56;1694122;84;21026;-82
2021/11/17 06:29:06;;;;;;;52.05;22.17;;;;;;;-2.49;83.93;98396.12;1702783;84;21009;-82
2021/11/17 06:31:37;;;;;;;46.60;21.87;;;;;;;-2.48;83.76;98399.20;1702939;84;21009;-82
2021/11/17 06:34:26;;;;;;;51.53;21.90;;;;;;;-2.47;83.87;98395.77;1704843;83;21424;-83
2021/11/17 06:36:54;;;;;;;49.08;23.05;;;;;;;-2.43;83.90;98398.03;1701968;84;21018;-82
2021/11/17 06:39:22;;;;;;;45.95;20.85;;;;;;;-2.41;83.59;98402.86;1702607;84;21404;-82
2021/11/17 06:41:49;;;;;;;44.50;21.30;;;;;;;-2.39;83.92;98400.77;1702469;84;21061;-82
2021/11/17 06:44:16;;;;;;;43.20;21.40;;;;;;;-2.35;83.96;98393.94;1671269;84;21394;-82
2021/11/17 06:46:43;;;;;;;47.27;22.25;;;;;;;-2.26;83.97;98399.41;1676782;84;21053;-82
2021/11/17 06:49:10;;;;;;;46.28;21.02;;;;;;;-2.20;83.98;98401.70;1670038;85;21061;-84
2021/11/17 06:51:38;;;;;;;41.20;20.05;;;;;;;-2.12;83.70;98398.88;1680827;83;21016;-83
2021/11/17 06:54:05;;;;;;;52.67;20.55;;;;;;;-2.11;83.85;98395.47;1692061;85;21071;-84
2021/11/17 06:56:32;;;;;;;43.25;20.70;;;;;;;-2.07;84.03;98396.02;1687953;83;20997;-83
2021/11/17 06:58:58;;;;;;;46.02;21.23;;;;;;;-1.98;83.91;98400.58;1676176;85;22094;-84
2021/11/17 07:01:25;;;;;;;47.25;21.33;;;;;;;-1.94;83.82;98402.42;1693668;84;21451;-83
2021/11/17 07:03:52;;;;;;;42.10;22.48;;;;;;;-1.89;83.70;98394.34;1685687;83;21036;-84
2021/11/17 07:06:19;;;;;;;48.80;22.75;;;;;;;-1.82;83.88;98397.09;1724620;83;21509;-84
2021/11/17 07:08:46;;;;;;;82.37;43.13;;;;;;;-1.77;83.61;98404.17;1688313;83;21695;-84
2021/11/17 07:11:13;;;;;;;46.58;22.30;;;;;;;-1.67;83.69;98398.78;1667375;86;21002;-83
2021/11/17 07:13:39;;;;;;;49.18;21.68;;;;;;;-1.59;83.54;98398.98;1697146;83;20997;-85
2021/11/17 07:16:09;;;;;;;40.70;22.22;;;;;;;-1.53;83.58;98396.53;1715599;83;21395;-84
2021/11/17 07:18:37;;;;;;;50.33;22.95;;;;;;;-1.45;83.42;98404.55;1677386;85;21068;-84
2021/11/17 07:21:07;;;;;;;52.45;23.22;;;;;;;-1.41;83.35;98399.00;1677666;86;20994;-84
2021/11/17 07:23:35;;;;;;;47.62;24.23;;;;;;;-1.35;83.34;98395.24;1686925;83;21009;-83
2021/11/17 07:26:06;;;;;;;49.13;24.05;;;;;;;-1.29;83.43;98397.98;1692673;83;21038;-84
2021/11/17 07:28:33;;;;;;;49.85;24.27;;;;;;;-1.24;83.21;98390.31;1696604;85;20982;-83
2021/11/17 07:31:00;;;;;;;49.55;23.70;;;;;;;-1.13;83.25;98392.73;1696109;85;21026;-83
2021/11/17 07:33:27;;;;;;;46.85;22.35;;;;;;;-1.04;83.21;98386.00;1692236;84;21050;-83
2021/11/17 07:35:54;;;;;;;44.80;22.60;;;;;;;-0.99;83.11;98383.94;1685149;83;20937;-83
2021/11/17 07:38:23;;;;;;;39.05;21.60;;;;;;;-0.89;83.00;98389.36;1721225;83;21018;-84
2021/11/17 07:40:55;;;;;;;43.63;21.37;;;;;;;-0.83;82.87;98386.92;1697210;84;21014;-83
2021/11/17 07:43:26;;;;;;;43.95;20.60;;;;;;;-0.78;82.81;98382.69;1697783;84;21028;-85
2021/11/17 07:45:55;;;;;;;45.88;20.77;;;;;;;-0.70;82.76;98377.20;1692394;83;21455;-83
2021/11/17 07:48:25;;;;;;;39.67;20.00;;;;;;;-0.61;82.77;98383.47;1688189;83;21167;-84
2021/11/17 07:50:56;;;;;;;51.43;23.37;;;;;;;-0.51;82.74;98382.81;1699827;83;21562;-84
2021/11/17 07:53:26;;;;;;;47.60;22.50;;;;;;;-0.42;82.54;98388.62;1704781;83;20954;-83
2021/11/17 07:55:56;;;;;;;44.95;22.55;;;;;;;-0.34;82.44;98391.42;1706599;83;21006;-83
2021/11/17 07:58:28;;;;;;;51.75;23.45;;;;;;;-0.29;82.22;98386.74;1649289;85;21042;-80
2021/11/17 08:00:59;;;;;;;54.93;27.05;;;;;;;-0.20;82.16;98393.00;1620324;87;21486;-81
2021/11/17 08:03:36;;;;;;;48.13;23.80;;;;;;;-0.14;82.14;98387.89;1638285;87;21018;-80
2021/11/17 08:06:04;;;;;;;54.10;26.07;;;;;;;-0.06;82.01;98385.44;1676431;85;21012;-80
2021/11/17 08:08:33;;;;;;;56.60;27.35;;;;;;;0.02;81.87;98392.09;1640538;86;21107;-80
2021/11/17 08:11:03;;;;;;;53.05;25.62;;;;;;;0.09;81.85;98386.17;1671546;85;21400;-79
2021/11/17 08:13:30;;;;;;;57.35;28.27;;;;;;;0.18;81.85;98388.95;1675395;85;21067;-82
2021/11/17 08:15:58;;;;;;;66.07;31.65;;;;;;;0.27;81.34;98383.02;1626994;86;21069;-88
2021/11/17 08:18:26;;;;;;;72.40;32.85;;;;;;;0.31;81.21;98383.53;1671519;85;21260;-88
2021/11/17 08:20:55;;;;;;;69.62;34.08;;;;;;;0.37;80.82;98382.33;1691253;85;21553;-86
2021/11/17 08:23:23;;;;;;;65.05;32.60;;;;;;;0.45;80.63;98382.45;1674082;86;21446;-87
2021/11/17 08:25:49;;;;;;;63.90;30.50;;;;;;;0.50;80.65;98390.38;1674016;86;21017;-87
2021/11/17 08:28:18;;;;;;;59.20;30.95;;;;;;;0.59;80.72;98389.23;1631785;86;21068;-86
2021/11/17 08:30:46;;;;;;;59.83;29.55;;;;;;;0.69;80.59;98384.14;1642108;87;21039;-88
2021/11/17 08:33:16;;;;;;;60.10;31.85;;;;;;;0.78;80.72;98390.81;1646180;86;20990;-87
2021/11/17 08:35:45;;;;;;;58.63;31.02;;;;;;;0.85;80.32;98393.99;1638398;87;21009;-81
2021/11/17 08:38:17;;;;;;;57.43;29.37;;;;;;;0.92;79.96;98395.83;1644106;86;21012;-82
2021/11/17 08:40:51;;;;;;;54.42;29.77;;;;;;;1.00;80.09;98394.64;1642281;86;21478;-82
2021/11/17 08:43:18;;;;;;;;;;;;;;;1.08;80.03;98393.89;1652266;86;21061;-86
2021/11/17 08:45:48;;;;;;;63.10;30.52;;;;;;;1.18;79.74;98394.06;1648726;86;20401;-88
2021/11/17 08:48:18;;;;;;;66.77;32.83;;;;;;;1.22;79.70;98385.84;1631117;87;21069;-83
2021/11/17 08:50:45;;;;;;;71.53;35.03;;;;;;;1.30;79.54;98377.66;1688676;84;22093;-84
2021/11/17 08:53:16;;;;;;;65.00;33.95;;;;;;;1.40;79.33;98373.88;1700963;84;20986;-87
2021/11/17 08:55:45;;;;;;;64.55;33.35;;;;;;;1.49;79.15;98376.61;1699698;84;21061;-86
2021/11/17 08:58:14;;;;;;;66.53;33.25;;;;;;;1.57;79.13;98376.29;1701267;84;21046;-87
2021/11/17 09:00:43;;;;;;;74.75;37.38;;;;;;;1.67;79.09;98375.10;1702978;84;21061;-87
2021/11/17 09:03:11;;;;;;;75.25;36.35;;;;;;;1.77;77.11;98377.38;1679882;84;21435;-86
2021/11/17 09:05:42;;;;;;;69.97;34.08;;;;;;;1.87;77.85;98376.63;1680859;84;21483;-83
2021/11/17 09:08:10;;;;;;;69.90;33.73;;;;;;;1.98;78.10;98371.11;1701887;84;21017;-84
2021/11/17 09:10:42;;;;;;;60.60;30.17;;;;;;;2.06;77.25;98371.19;1703245;84;20997;-84
2021/11/17 09:13:09;;;;;;;59.80;30.25;;;;;;;2.16;78.05;98376.08;1707433;83;21044;-82
2021/11/17 09:15:40;;;;;;;67.00;33.48;;;;;;;2.24;78.22;98373.12;1707422;84;21045;-82
2021/11/17 09:18:09;;;;;;;71.30;34.90;;;;;;;2.33;77.36;98368.39;1705942;84;21054;-80
2021/11/17 09:20:37;;;;;;;66.62;34.40;;;;;;;2.41;77.75;98364.99;1681401;83;21070;-82
2021/11/17 09:23:07;;;;;;;58.20;30.52;;;;;;;2.52;77.94;98363.79;1666735;85;21372;-82
2021/11/17 09:25:34;;;;;;;60.58;30.43;;;;;;;2.59;77.76;98358.62;1688160;85;21066;-83
2021/11/17 09:28:01;;;;;;;57.48;28.70;;;;;;;2.69;77.54;98354.78;1667749;85;21455;-84
2021/11/17 09:30:31;;;;;;;56.80;29.42;;;;;;;2.76;77.17;98352.64;1660308;86;21029;-79
2021/11/17 09:33:03;;;;;;;54.65;29.70;;;;;;;2.84;76.98;98351.38;1679091;84;21508;-81
2021/11/17 09:35:31;;;;;;;64.27;31.85;;;;;;;2.93;75.82;98350.14;1687793;85;21054;-82
2021/11/17 09:37:58;;;;;;;62.17;31.55;;;;;;;3.01;76.67;98341.91;1695169;84;20985;-81
2021/11/17 09:40:30;;;;;;;64.82;31.50;;;;;;;3.12;76.55;98341.10;1690410;84;21085;-82
2021/11/17 09:42:58;;;;;;;63.08;31.25;;;;;;;3.21;75.94;98336.34;1691884;84;21483;-84
2021/11/17 09:45:26;;;;;;;58.05;29.35;;;;;;;3.32;75.88;98333.33;1690288;84;21037;-84
2021/11/17 09:47:55;;;;;;;54.38;27.95;;;;;;;3.42;75.49;98336.89;1692042;84;21066;-84
2021/11/17 09:50:36;;;;;;;59.67;29.87;;;;;;;3.54;75.38;98331.69;1686619;84;21005;-82
2021/11/17 09:53:29;;;;;;;56.77;28.10;;;;;;;3.63;75.05;98329.56;1687072;84;20978;-83
2021/11/17 09:56:01;;;;;;;51.10;28.23;;;;;;;3.74;74.35;98325.64;1699381;84;20991;-85
2021/11/17 09:58:42;;;;;;;52.67;27.27;;;;;;;3.81;73.92;98325.23;1681316;85;21084;-79
2021/11/17 10:01:26;;;;;;;59.13;28.87;;;;;;;3.90;74.40;98320.47;1682250;85;21061;-81
2021/11/17 10:04:06;;;;;;;56.23;30.47;;;;;;;3.96;72.90;98311.30;1682951;85;21021;-85
2021/11/17 10:14:53;;;;;;;70.62;31.70;;;;;;;4.23;72.75;98310.89;1689125;84;20985;-82
2021/11/17 10:17:48;;;;;;;56.85;30.77;;;;;;;4.33;72.34;98305.23;1690771;84;21010;-81
2021/11/17 10:20:33;;;;;;;57.53;27.75;;;;;;;4.37;71.56;98297.80;1689781;84;21463;-83
2021/11/17 10:23:16;;;;;;;59.65;29.32;;;;;;;4.44;72.04;98306.56;1666173;85;21009;-82
2021/11/17 10:26:06;;;;;;;60.58;30.08;;;;;;;4.46;71.23;98302.17;1687358;85;22100;-81
2021/11/17 10:28:54;;;;;;;53.78;30.85;;;;;;;4.51;71.32;98301.73;1703670;84;21013;-83
2021/11/17 10:31:50;;;;;;;57.78;30.45;;;;;;;4.84;70.96;98296.02;1704911;84;21129;-83
2021/11/17 10:34:29;;;;;;;54.08;30.50;;;;;;;5.89;70.86;98288.61;1696577;84;21043;-80
2021/11/17 10:37:03;;;;;;;54.15;31.23;;;;;;;7.15;67.89;98282.78;1663470;85;21085;-81
2021/11/17 10:39:45;;;;;;;52.48;29.90;;;;;;;8.04;65.89;98284.28;1682354;84;21075;-80
2021/11/17 10:42:33;;;;;;;49.33;30.30;;;;;;;9.08;66.15;98270.70;1691211;84;21032;-80
2021/11/17 10:45:14;;;;;;;53.05;30.20;;;;;;;9.80;56.51;98278.50;1687615;85;21051;-78
2021/11/17 10:47:48;;;;;;;49.48;31.62;;;;;;;10.34;55.90;98272.42;1690043;84;21061;-80
2021/11/17 10:50:32;;;;;;;48.60;31.45;;;;;;;10.73;53.00;98264.00;1712447;83;21000;-83
2021/11/17 10:53:16;;;;;;;51.02;31.55;;;;;;;11.42;54.25;98254.61;1698609;83;21077;-84
2021/11/17 10:55:49;;;;;;;52.10;32.38;;;;;;;12.01;49.67;98241.38;1696649;83;21026;-84
2021/11/17 10:58:24;;;;;;;52.25;32.48;;;;;;;12.49;48.15;98256.26;1670487;85;21046;-82
2021/11/17 11:00:59;;;;;;;50.43;32.95;;;;;;;12.64;50.11;98251.78;1687367;84;21077;-86
2021/11/17 11:03:31;;;;;;;51.15;31.15;;;;;;;13.32;44.26;98252.96;1678016;85;21065;-85
2021/11/17 11:06:12;;;;;;;45.43;29.70;;;;;;;13.16;43.46;98246.02;1693951;85;21039;-84
2021/11/17 11:09:09;;;;;;;43.25;27.37;;;;;;;13.26;45.84;98246.09;1695949;84;21066;-82
2021/11/17 11:11:44;;;;;;;38.50;24.98;;;;;;;13.39;43.35;98240.30;1696406;83;21026;-86
2021/11/17 11:14:29;;;;;;;36.20;25.35;;;;;;;14.32;43.56;98224.73;1669138;86;21032;-84
2021/11/17 11:17:26;;;;;;;35.75;24.45;;;;;;;15.24;44.55;98219.52;1690633;83;20966;-88
2021/11/17 11:20:20;;;;;;;42.15;26.40;;;;;;;15.19;42.82;98212.19;1677054;86;21021;-83
2021/11/17 11:23:13;;;;;;;37.13;26.57;;;;;;;15.13;38.84;98212.02;1670789;85;20985;-85
2021/11/17 11:26:06;;;;;;;40.23;25.92;;;;;;;14.97;39.60;98212.28;1686901;85;21018;-84
2021/11/17 11:28:49;;;;;;;35.10;24.65;;;;;;;15.49;39.14;98201.53;1695898;85;21038;-85
2021/11/17 11:31:39;;;;;;;35.30;23.62;;;;;;;15.60;38.24;98205.89;1681700;83;21081;-84
2021/11/17 11:34:14;;;;;;;36.03;26.70;;;;;;;15.87;41.95;98193.52;1696600;83;21025;-85
2021/11/17 11:36:46;;;;;;;35.63;24.75;;;;;;;16.03;38.54;98196.80;1698462;83;21065;-85
2021/11/17 11:39:19;;;;;;;37.13;25.12;;;;;;;15.77;41.42;98190.86;1676547;85;21110;-82
2021/11/17 11:42:10;;;;;;;41.17;25.80;;;;;;;15.31;38.52;98200.09;1643705;87;21439;-82
2021/11/17 11:44:42;;;;;;;39.15;25.27;;;;;;;14.95;38.75;98195.00;1638976;87;21580;-84
2021/11/17 11:47:14;;;;;;;33.15;23.12;;;;;;;14.90;39.24;98185.88;1685839;85;20989;-84
2021/11/17 11:49:52;;;;;;;35.13;22.75;;;;;;;14.76;38.89;98186.49;1671249;84;21049;-81
2021/11/17 11:52:39;;;;;;;33.38;23.55;;;;;;;15.49;40.41;98189.51;1673603;85;21085;-79
2021/11/17 11:55:14;;;;;;;33.60;22.58;;;;;;;16.21;40.53;98171.84;1664115;84;21069;-81
2021/11/17 11:58:23;;;;;;;37.48;22.58;;;;;;;16.42;39.21;98169.48;1706856;84;21033;-82
2021/11/17 12:01:15;;;;;;;35.55;24.07;;;;;;;16.45;40.69;98172.02;1668114;85;21179;-83
2021/11/17 12:03:59;;;;;;;36.42;23.67;;;;;;;15.99;38.93;98169.36;1669980;84;21126;-83
2021/11/17 12:06:31;;;;;;;32.93;24.07;;;;;;;15.60;38.43;98166.30;1669564;84;21504;-83
2021/11/17 12:09:24;;;;;;;39.55;23.90;;;;;;;14.97;40.05;98167.79;1683275;84;21061;-83
2021/11/17 12:12:06;;;;;;;37.95;24.25;;;;;;;14.43;39.85;98170.09;1686203;84;21037;-83
2021/11/17 12:14:45;;;;;;;39.42;24.20;;;;;;;13.98;42.16;98167.48;1665558;85;21555;-86
2021/11/17 12:17:15;;;;;;;33.92;23.38;;;;;;;13.82;42.18;98162.78;1679447;84;20998;-82
2021/11/17 12:19:51;;;;;;;37.53;24.47;;;;;;;13.58;42.23;98172.63;1679839;84;21042;-84
2021/11/17 12:22:43;;;;;;;37.98;25.50;;;;;;;13.11;43.12;98171.66;1686982;84;21340;-82
2021/11/17 12:25:18;;;;;;;39.85;24.77;;;;;;;12.68;44.30;98168.78;1689545;84;21065;-82
2021/11/17 12:27:46;;;;;;;36.70;24.12;;;;;;;12.00;45.77;98159.48;1705414;84;21084;-81
2021/11/17 12:30:39;;;;;;;44.65;27.05;;;;;;;11.71;46.80;98157.78;1663893;84;21006;-82
2021/11/17 12:33:16;;;;;;;44.33;26.77;;;;;;;11.21;47.82;98162.79;1697703;84;21050;-82
2021/11/17 12:35:49;;;;;;;39.65;26.42;;;;;;;10.75;49.30;98160.14;1698192;84;21002;-83
2021/11/17 12:38:21;;;;;;;42.58;26.12;;;;;;;10.77;49.76;98157.86;1700436;84;21046;-83
2021/11/17 12:40:55;;;;;;;45.85;25.65;;;;;;;10.73;49.84;98157.97;1676575;84;21014;-82
2021/11/17 12:43:33;;;;;;;41.15;26.35;;;;;;;10.58;50.29;98150.85;1687407;84;20986;-82
2021/11/17 12:46:26;;;;;;;43.08;26.70;;;;;;;10.41;50.75;98152.16;1703731;84;21126;-84
2021/11/17 12:49:11;;;;;;;39.55;24.52;;;;;;;10.30;51.25;98152.42;1710147;84;21085;-83
2021/11/17 12:51:43;;;;;;;42.67;24.95;;;;;;;10.45;51.42;98158.27;1713000;84;21014;-86
2021/11/17 12:54:24;;;;;;;43.80;24.45;;;;;;;10.58;50.76;98144.70;1708898;84;21057;-81
2021/11/17 12:57:03;;;;;;;44.75;26.20;;;;;;;10.07;51.78;98152.14;1710943;84;21455;-83
2021/11/17 12:59:44;;;;;;;44.38;26.33;;;;;;;9.51;53.55;98155.67;1678647;85;21054;-81
2021/11/17 13:02:29;;;;;;;46.13;26.87;;;;;;;9.19;54.00;98155.91;1678755;85;21482;-82
2021/11/17 13:05:22;;;;;;;41.85;24.75;;;;;;;8.93;54.04;98159.51;1678075;85;21035;-83
2021/11/17 13:08:09;;;;;;;48.10;26.87;;;;;;;8.77;54.79;98155.44;1670619;84;21446;-82
2021/11/17 13:10:49;;;;;;;49.53;25.27;;;;;;;8.55;55.57;98165.08;1694313;84;21085;-81
2021/11/17 13:13:27;;;;;;;43.25;24.70;;;;;;;8.40;55.64;98166.22;1667615;84;21062;-82
2021/11/17 13:16:01;;;;;;;49.42;25.27;;;;;;;8.24;56.24;98165.17;1693370;84;21435;-82
2021/11/17 13:18:48;;;;;;;44.75;24.98;;;;;;;8.02;57.40;98162.88;1688077;84;20978;-82
2021/11/17 13:21:28;;;;;;;45.48;26.00;;;;;;;7.94;57.40;98174.03;1672484;84;21355;-81
2021/11/17 13:24:05;;;;;;;52.45;26.77;;;;;;;7.82;58.39;98164.98;1682295;84;21474;-82
2021/11/17 13:26:38;;;;;;;51.98;26.23;;;;;;;7.72;58.28;98161.63;1711885;84;21009;-81
2021/11/17 13:29:26;;;;;;;49.83;25.60;;;;;;;7.63;59.20;98162.18;1687396;84;21010;-81
2021/11/17 13:32:09;;;;;;;49.93;25.72;;;;;;;7.53;58.70;98165.85;1601452;87;20970;-81
2021/11/17 13:34:40;;;;;;;45.03;25.40;;;;;;;7.46;59.63;98161.11;1665622;84;21125;-81
2021/11/17 13:37:35;;;;;;;48.48;24.72;;;;;;;7.38;59.35;98159.02;1661276;86;21017;-83
2021/11/17 13:40:05;;;;;;;;;;;;;;;7.29;60.69;98163.09;1667959;86;21052;-81
2021/11/17 13:42:32;;;;;;;48.35;26.05;;;;;;;7.22;60.02;98156.59;1662062;86;20120;-79
2021/11/17 13:45:01;;;;;;;48.70;25.17;;;;;;;7.15;60.60;98155.38;1682291;84;21505;-79
2021/11/17 13:47:31;;;;;;;55.15;26.37;;;;;;;7.10;60.44;98152.35;1705509;84;21040;-83
2021/11/17 13:50:01;;;;;;;53.95;25.77;;;;;;;7.03;60.58;98152.02;1711801;84;20962;-79
2021/11/17 13:52:32;;;;;;;47.90;25.77;;;;;;;6.98;61.32;98153.38;1711194;83;21061;-82
2021/11/17 13:55:04;;;;;;;47.45;26.37;;;;;;;6.90;61.26;98154.38;1697959;84;20995;-83
2021/11/17 13:57:31;;;;;;;46.60;25.85;;;;;;;6.84;62.04;98157.52;1696853;84;20993;-80
2021/11/17 13:59:59;;;;;;;47.83;26.12;;;;;;;6.75;62.24;98156.30;1697838;84;21022;-78
2021/11/17 14:02:31;;;;;;;49.25;25.15;;;;;;;6.70;61.86;98160.31;1695862;84;21005;-78
2021/11/17 14:04:57;;;;;;;46.83;25.72;;;;;;;6.64;62.05;98159.05;1697465;84;20985;-78
2021/11/17 14:07:25;;;;;;;47.53;24.60;;;;;;;6.58;62.38;98160.00;1703177;84;20990;-77
2021/11/17 14:09:52;;;;;;;47.70;26.25;;;;;;;6.52;62.36;98163.14;1685872;84;20998;-79
2021/11/17 14:12:21;;;;;;;50.80;25.80;;;;;;;6.46;62.84;98169.34;1705824;84;21013;-80
2021/11/17 14:14:47;;;;;;;45.17;24.67;;;;;;;6.39;63.63;98167.20;1653071;86;21080;-79
2021/11/17 14:17:14;;;;;;;48.33;24.90;;;;;;;6.34;63.14;98169.89;1677509;85;20987;-79
2021/11/17 14:19:41;;;;;;;50.17;25.10;;;;;;;6.27;63.83;98164.70;1679604;84;21455;-78
2021/11/17 14:22:09;;;;;;;46.48;25.15;;;;;;;6.19;63.61;98162.15;1679426;85;21042;-79
2021/11/17 14:24:37;;;;;;;51.02;25.72;;;;;;;6.09;64.24;98161.34;1691276;85;21422;-79
2021/11/17 14:27:08;;;;;;;45.63;24.25;;;;;;;6.03;64.18;98167.98;1681514;84;21052;-79
2021/11/17 14:29:46;;;;;;;46.08;24.02;;;;;;;5.95;64.16;98156.17;1704771;84;21026;-81
2021/11/17 14:32:18;;;;;;;53.85;24.90;;;;;;;5.87;64.52;98169.82;1699235;84;21030;-82
2021/11/17 14:34:46;;;;;;;51.15;25.65;;;;;;;5.77;64.30;98168.58;1698728;84;20989;-81
2021/11/17 14:37:13;;;;;;;48.68;26.00;;;;;;;5.68;64.66;98173.89;1694787;85;21017;-81
2021/11/17 14:39:43;;;;;;;64.75;34.05;;;;;;;5.60;64.55;98170.47;1701970;84;21474;-78
2021/11/17 14:42:12;;;;;;;55.33;26.93;;;;;;;5.51;65.34;98168.75;1697120;84;21017;-79
2021/11/17 14:44:39;;;;;;;52.48;25.52;;;;;;;5.42;65.21;98173.63;1676591;85;21029;-79
2021/11/17 14:47:07;;;;;;;50.95;25.77;;;;;;;5.32;65.49;98178.52;1695217;84;21005;-80